Forside
METAR-TAF:

METAR-TAF

Lufthavne :

Billund Lufthavn

Billund, Danmark

Breddekreds: 55-44N, længdekreds: 009-10E, højde: 75 m

Aktuelle vejr

Denne rapport blev lavet for 30 minutter siden, kl. 20:20 UTC
Vind 3 kt fra nordnordvest
Temperatur 2°C
Fugtighed 69%
Tryk 1009 hPa
Sigt 10 km eller mere

METAR: EKBI 192020Z AUTO 34003KT 9999 NCD 02/M03 Q1009

Tid: 22:50 (20:50 UTC)

Vejrudsigter

Denne rapport blev lavet for 3 timer og 41 minutter siden, kl. 17:09 UTC
Foreløbig gælder fra 19 på 18 UTC til 20 på 18 UTC
Vind 8 kt fra nord
Sigt 10 km eller mere
Spredte skyer i en højde af 3000 ft
Midlertidig
fra 20 på 08 UTC til 20 på 14 UTC
Spredte skyer i en højde af 2000 ft, Cumulonimbus.
Midlertidig
fra 20 på 14 UTC til 20 på 18 UTC
Sigt: 4000 m
Brudte skyer i en højde af 1200 ft
Brudte skyer i en højde af 2000 ft, Cumulonimbus.
regnbyger,

TAF: EKBI 191709Z 1918/2018 01008KT 9999 SCT030 TEMPO 2008/2014 SCT020CB TEMPO 2014/2018 4000 SHRA BKN012 BKN020CB

Vejrobservationer og prognoser fra mere end 4000 lufthavne (METAR og TAF).

De gule og røde prikker repræsenterer de meteorologiske stationer.

Flyt musen over at se navnet på stationen.

Så klik over at se vejr observationer og prognoser.

At skifte det kort: Klik på de grønne knapper med et sort kors for at zoome ind; på den grønne knap med en bindestreg for at zoome ud; eller på de grønne pile for tilstødende kort.


METAR-TAF: